Portada
METAR-TAF:

METAR-TAF

Aeroports :

Fort Madison Municipal Airport

Fort Madison, Iowa, Estats Units d'Amèrica

latitud: 40-40N, longitud: 091-20W, altitud: 221 m

Observació

L'informe es va fer fa 10 minuts, a les 20:35 UTC
Vent calma
Temperatura 2°C
Humitat 69%
Pressió 1021 hPa
Visibilitat: 16.1 km
Cel clar

METAR: KFSW 222035Z AUTO 00000KT 10SM CLR 02/M03 A3015 RMK AO2

Hora: 14:45 (20:45 UTC)


TAF: manca

Observacions i pronòstics meteorològics de més de 4000 aeroports (METAR i TAF).

Les estacions disponibles són els punts grocs i vermells al mapa.

Posi el ratolí al punt desitjat per veure el nom de l'estació.

Feu clic per veure les observacions i els pronòstics meteorològics.

Per canviar el mapa: feu clic els botons verds amb una creu de color negre per apropar; al botó verd amb un guió per allunyar la imatge; o en les fletxes verdes per a mapes adjacents.


METAR-TAF: